sensor_id;sensor_type;location;lat;lon;timestamp;pressure;altitude;pressure_sealevel;temperature;humidity
60089;BME280;45961;53.574;55.878;2023-06-14T00:00:06;100379.44;;;13.98;59.31
60089;BME280;45961;53.574;55.878;2023-06-14T00:01:08;100393.34;;;13.89;59.32
60089;BME280;45961;53.574;55.878;2023-06-14T00:02:10;100389.88;;;13.90;59.59
60089;BME280;45961;53.574;55.878;2023-06-14T00:03:11;100382.09;;;13.86;59.76
60089;BME280;45961;53.574;55.878;2023-06-14T00:04:13;100389.00;;;13.96;59.54
60089;BME280;45961;53.574;55.878;2023-06-14T00:05:17;100383.78;;;13.97;59.55
60089;BME280;45961;53.574;55.878;2023-06-14T00:06:18;100388.16;;;13.92;59.81
60089;BME280;45961;53.574;55.878;2023-06-14T00:07:22;100389.88;;;13.90;60.03
60089;BME280;45961;53.574;55.878;2023-06-14T00:08:33;100380.34;;;13.88;59.94
60089;BME280;45961;53.574;55.878;2023-06-14T00:09:35;100383.84;;;13.83;60.38
60089;BME280;45961;53.574;55.878;2023-06-14T00:10:36;100393.34;;;13.91;60.27
60089;BME280;45961;53.574;55.878;2023-06-14T00:11:40;100383.81;;;13.90;60.35
60089;BME280;45961;53.574;55.878;2023-06-14T00:12:41;100384.69;;;13.84;60.39
60089;BME280;45961;53.574;55.878;2023-06-14T00:13:42;100382.94;;;13.78;60.58
60089;BME280;45961;53.574;55.878;2023-06-14T00:14:43;100394.22;;;13.85;60.41
60089;BME280;45961;53.574;55.878;2023-06-14T00:15:45;100394.22;;;13.74;60.53
60089;BME280;45961;53.574;55.878;2023-06-14T00:16:47;100399.44;;;13.80;60.48
60089;BME280;45961;53.574;55.878;2023-06-14T00:17:48;100402.94;;;13.67;60.77
60089;BME280;45961;53.574;55.878;2023-06-14T00:18:49;100398.59;;;13.68;60.66
60089;BME280;45961;53.574;55.878;2023-06-14T00:19:52;100405.50;;;13.58;61.03
60089;BME280;45961;53.574;55.878;2023-06-14T00:20:53;100397.75;;;13.55;61.01
60089;BME280;45961;53.574;55.878;2023-06-14T00:21:54;100397.72;;;13.52;61.22
60089;BME280;45961;53.574;55.878;2023-06-14T00:22:55;100398.59;;;13.52;61.19
60089;BME280;45961;53.574;55.878;2023-06-14T00:23:57;100404.66;;;13.57;61.04
60089;BME280;45961;53.574;55.878;2023-06-14T00:24:58;100402.06;;;13.57;61.12
60089;BME280;45961;53.574;55.878;2023-06-14T00:25:59;100399.47;;;13.56;60.79
60089;BME280;45961;53.574;55.878;2023-06-14T00:27:00;100398.59;;;13.63;60.83
60089;BME280;45961;53.574;55.878;2023-06-14T00:28:03;100401.16;;;13.78;60.56
60089;BME280;45961;53.574;55.878;2023-06-14T00:29:04;100390.78;;;13.72;60.24
60089;BME280;45961;53.574;55.878;2023-06-14T00:30:06;100392.53;;;13.75;60.10
60089;BME280;45961;53.574;55.878;2023-06-14T00:31:08;100392.50;;;13.79;59.94
60089;BME280;45961;53.574;55.878;2023-06-14T00:32:09;100396.84;;;13.88;59.73
60089;BME280;45961;53.574;55.878;2023-06-14T00:33:10;100389.91;;;13.92;59.57
60089;BME280;45961;53.574;55.878;2023-06-14T00:34:10;100396.84;;;13.91;59.27
60089;BME280;45961;53.574;55.878;2023-06-14T00:35:12;100394.19;;;14.02;58.93
60089;BME280;45961;53.574;55.878;2023-06-14T00:36:13;100399.41;;;13.97;58.89
60089;BME280;45961;53.574;55.878;2023-06-14T00:37:14;100396.78;;;14.05;58.82
60089;BME280;45961;53.574;55.878;2023-06-14T00:38:17;100398.56;;;14.00;58.71
60089;BME280;45961;53.574;55.878;2023-06-14T00:39:18;100403.75;;;14.00;58.57
60089;BME280;45961;53.574;55.878;2023-06-14T00:40:19;100395.06;;;14.05;58.82
60089;BME280;45961;53.574;55.878;2023-06-14T00:41:20;100405.47;;;14.01;58.63
60089;BME280;45961;53.574;55.878;2023-06-14T00:42:28;100388.13;;;13.97;58.65
60089;BME280;45961;53.574;55.878;2023-06-14T00:43:30;100398.47;;;14.21;58.19
60089;BME280;45961;53.574;55.878;2023-06-14T00:44:31;100403.69;;;14.24;58.10
60089;BME280;45961;53.574;55.878;2023-06-14T00:45:31;100396.78;;;14.02;58.64
60089;BME280;45961;53.574;55.878;2023-06-14T00:46:36;100404.59;;;14.05;58.74
60089;BME280;45961;53.574;55.878;2023-06-14T00:47:38;100398.53;;;14.15;58.81
60089;BME280;45961;53.574;55.878;2023-06-14T00:48:39;100406.28;;;14.18;58.62
60089;BME280;45961;53.574;55.878;2023-06-14T00:49:41;100403.69;;;14.24;58.39
60089;BME280;45961;53.574;55.878;2023-06-14T00:50:43;100402.84;;;14.10;58.51
60089;BME280;45961;53.574;55.878;2023-06-14T00:51:46;100403.72;;;14.06;58.91
60089;BME280;45961;53.574;55.878;2023-06-14T00:52:47;100413.28;;;14.07;58.94
60089;BME280;45961;53.574;55.878;2023-06-14T00:53:48;100403.72;;;14.11;58.95
60089;BME280;45961;53.574;55.878;2023-06-14T00:54:49;100411.53;;;14.20;58.74
60089;BME280;45961;53.574;55.878;2023-06-14T00:55:50;100407.16;;;14.28;58.76
60089;BME280;45961;53.574;55.878;2023-06-14T00:56:51;100408.00;;;14.27;58.47
60089;BME280;45961;53.574;55.878;2023-06-14T00:57:56;100408.84;;;14.40;58.08
60089;BME280;45961;53.574;55.878;2023-06-14T00:58:57;100407.06;;;14.46;58.07
60089;BME280;45961;53.574;55.878;2023-06-14T00:59:59;100402.75;;;14.48;58.18
60089;BME280;45961;53.574;55.878;2023-06-14T01:01:00;100404.50;;;14.42;57.60
60089;BME280;45961;53.574;55.878;2023-06-14T01:02:03;100406.19;;;14.55;57.46
60089;BME280;45961;53.574;55.878;2023-06-14T01:03:04;100404.38;;;14.71;57.32
60089;BME280;45961;53.574;55.878;2023-06-14T01:04:06;100403.50;;;14.76;56.80
60089;BME280;45961;53.574;55.878;2023-06-14T01:05:07;100406.94;;;14.83;56.40
60089;BME280;45961;53.574;55.878;2023-06-14T01:06:23;100417.31;;;14.91;56.30
60089;BME280;45961;53.574;55.878;2023-06-14T01:08:47;100405.16;;;14.90;55.66
60089;BME280;45961;53.574;55.878;2023-06-14T01:11:26;100401.09;;;15.76;54.39
60089;BME280;45961;53.574;55.878;2023-06-14T01:12:32;100394.16;;;16.52;51.55
60089;BME280;45961;53.574;55.878;2023-06-14T01:13:38;100395.00;;;17.21;49.76
60089;BME280;45961;53.574;55.878;2023-06-14T01:14:41;100385.19;;;17.86;48.64
60089;BME280;45961;53.574;55.878;2023-06-14T01:15:43;100392.19;;;17.86;47.29
60089;BME280;45961;53.574;55.878;2023-06-14T01:16:45;100389.88;;;18.59;46.75
60089;BME280;45961;53.574;55.878;2023-06-14T01:17:49;100392.56;;;19.35;44.70
60089;BME280;45961;53.574;55.878;2023-06-14T01:18:52;100385.81;;;19.24;44.52
60089;BME280;45961;53.574;55.878;2023-06-14T01:20:02;100389.53;;;19.86;43.97
60089;BME280;45961;53.574;55.878;2023-06-14T01:21:03;100386.09;;;20.16;42.20
60089;BME280;45961;53.574;55.878;2023-06-14T01:22:09;100385.91;;;20.55;41.85
60089;BME280;45961;53.574;55.878;2023-06-14T01:23:11;100382.31;;;21.15;41.32
60089;BME280;45961;53.574;55.878;2023-06-14T01:24:16;100375.03;;;21.50;40.51
60089;BME280;45961;53.574;55.878;2023-06-14T01:25:21;100390.22;;;21.95;38.92
60089;BME280;45961;53.574;55.878;2023-06-14T01:26:24;100382.09;;;22.50;38.85
60089;BME280;45961;53.574;55.878;2023-06-14T01:27:27;100386.53;;;22.71;38.64
60089;BME280;45961;53.574;55.878;2023-06-14T01:28:33;100403.53;;;23.31;36.87
60089;BME280;45961;53.574;55.878;2023-06-14T01:29:35;100391.03;;;23.36;37.02
60089;BME280;45961;53.574;55.878;2023-06-14T01:30:39;100395.31;;;22.95;36.22
60089;BME280;45961;53.574;55.878;2023-06-14T01:31:46;100387.41;;;23.59;36.32
60089;BME280;45961;53.574;55.878;2023-06-14T01:32:49;100393.81;;;23.96;35.43
60089;BME280;45961;53.574;55.878;2023-06-14T01:33:51;100394.56;;;23.35;35.97
60089;BME280;45961;53.574;55.878;2023-06-14T01:34:53;100407.97;;;23.31;36.01
60089;BME280;45961;53.574;55.878;2023-06-14T01:35:55;100390.72;;;23.00;36.29
60089;BME280;45961;53.574;55.878;2023-06-14T01:36:57;100392.44;;;22.78;36.85
60089;BME280;45961;53.574;55.878;2023-06-14T01:38:02;100403.34;;;22.45;38.11
60089;BME280;45961;53.574;55.878;2023-06-14T01:39:05;100406.63;;;21.52;38.54
60089;BME280;45961;53.574;55.878;2023-06-14T01:40:07;100409.19;;;22.30;38.09
60089;BME280;45961;53.574;55.878;2023-06-14T01:41:11;100407.91;;;22.16;38.19
60089;BME280;45961;53.574;55.878;2023-06-14T01:42:12;100398.84;;;22.72;37.92
60089;BME280;45961;53.574;55.878;2023-06-14T01:43:16;100410.56;;;22.16;37.61
60089;BME280;45961;53.574;55.878;2023-06-14T01:44:18;100411.03;;;21.51;38.43
60089;BME280;45961;53.574;55.878;2023-06-14T01:45:20;100409.38;;;21.74;38.53
60089;BME280;45961;53.574;55.878;2023-06-14T01:46:23;100403.09;;;22.03;38.49
60089;BME280;45961;53.574;55.878;2023-06-14T01:47:24;100407.63;;;21.99;37.49
60089;BME280;45961;53.574;55.878;2023-06-14T01:48:26;100414.34;;;21.56;38.52
60089;BME280;45961;53.574;55.878;2023-06-14T01:49:27;100407.56;;;21.49;37.94
60089;BME280;45961;53.574;55.878;2023-06-14T01:50:32;100415.66;;;21.96;37.37
60089;BME280;45961;53.574;55.878;2023-06-14T01:51:33;100409.75;;;21.63;37.04
60089;BME280;45961;53.574;55.878;2023-06-14T01:52:34;100413.63;;;22.03;36.74
60089;BME280;45961;53.574;55.878;2023-06-14T01:53:35;100416.84;;;21.86;37.05
60089;BME280;45961;53.574;55.878;2023-06-14T01:54:36;100412.47;;;22.11;36.48
60089;BME280;45961;53.574;55.878;2023-06-14T01:55:42;100408.91;;;22.12;36.27
60089;BME280;45961;53.574;55.878;2023-06-14T01:56:44;100407.38;;;22.55;36.14
60089;BME280;45961;53.574;55.878;2023-06-14T01:57:45;100411.38;;;22.89;35.46
60089;BME280;45961;53.574;55.878;2023-06-14T01:58:46;100411.38;;;22.89;35.06
60089;BME280;45961;53.574;55.878;2023-06-14T01:59:49;100414.91;;;22.17;35.79
60089;BME280;45961;53.574;55.878;2023-06-14T02:00:50;100410.25;;;22.49;35.20
60089;BME280;45961;53.574;55.878;2023-06-14T02:01:52;100417.28;;;22.25;34.69
60089;BME280;45961;53.574;55.878;2023-06-14T02:02:53;100417.25;;;22.00;34.97
60089;BME280;45961;53.574;55.878;2023-06-14T02:03:54;100412.59;;;22.33;35.10
60089;BME280;45961;53.574;55.878;2023-06-14T02:04:55;100413.59;;;22.04;35.50
60089;BME280;45961;53.574;55.878;2023-06-14T02:05:58;100412.13;;;22.46;35.54
60089;BME280;45961;53.574;55.878;2023-06-14T02:06:59;100414.38;;;22.06;34.86
60089;BME280;45961;53.574;55.878;2023-06-14T02:08:00;100423.78;;;22.15;35.23
60089;BME280;45961;53.574;55.878;2023-06-14T02:09:02;100409.84;;;22.36;35.70
60089;BME280;45961;53.574;55.878;2023-06-14T02:10:04;100413.00;;;22.93;35.29
60089;BME280;45961;53.574;55.878;2023-06-14T02:11:05;100411.38;;;22.42;34.31
60089;BME280;45961;53.574;55.878;2023-06-14T02:12:07;100410.28;;;22.95;34.77
60089;BME280;45961;53.574;55.878;2023-06-14T02:13:08;100416.41;;;22.97;35.05
60089;BME280;45961;53.574;55.878;2023-06-14T02:14:10;100407.97;;;23.31;34.40
60089;BME280;45961;53.574;55.878;2023-06-14T02:15:12;100411.03;;;23.42;33.83
60089;BME280;45961;53.574;55.878;2023-06-14T02:16:17;100402.38;;;22.95;34.02
60089;BME280;45961;53.574;55.878;2023-06-14T02:17:18;100411.91;;;23.21;33.80
60089;BME280;45961;53.574;55.878;2023-06-14T02:18:20;100401.88;;;22.83;34.40
60089;BME280;45961;53.574;55.878;2023-06-14T02:19:22;100406.75;;;23.18;33.95
60089;BME280;45961;53.574;55.878;2023-06-14T02:20:23;100410.81;;;23.26;33.54
60089;BME280;45961;53.574;55.878;2023-06-14T02:21:24;100409.44;;;23.38;33.60
60089;BME280;45961;53.574;55.878;2023-06-14T02:22:25;100401.97;;;23.05;33.83
60089;BME280;45961;53.574;55.878;2023-06-14T02:23:26;100410.19;;;22.98;33.91
60089;BME280;45961;53.574;55.878;2023-06-14T02:24:27;100407.13;;;23.08;33.96
60089;BME280;45961;53.574;55.878;2023-06-14T02:25:28;100413.44;;;22.34;34.49
60089;BME280;45961;53.574;55.878;2023-06-14T02:26:29;100414.13;;;22.15;34.50
60089;BME280;45961;53.574;55.878;2023-06-14T02:27:30;100407.59;;;22.49;34.37
60089;BME280;45961;53.574;55.878;2023-06-14T02:28:31;100407.47;;;22.29;34.69
60089;BME280;45961;53.574;55.878;2023-06-14T02:29:32;100410.13;;;21.77;34.65
60089;BME280;45961;53.574;55.878;2023-06-14T02:30:34;100403.97;;;22.03;34.77
60089;BME280;45961;53.574;55.878;2023-06-14T02:31:35;100404.16;;;22.47;34.22
60089;BME280;45961;53.574;55.878;2023-06-14T02:32:37;100408.34;;;22.53;34.48
60089;BME280;45961;53.574;55.878;2023-06-14T02:33:39;100408.28;;;22.78;34.28
60089;BME280;45961;53.574;55.878;2023-06-14T02:34:40;100401.50;;;22.47;34.10
60089;BME280;45961;53.574;55.878;2023-06-14T02:35:42;100404.84;;;22.76;33.97
60089;BME280;45961;53.574;55.878;2023-06-14T02:36:43;100398.94;;;22.69;34.01
60089;BME280;45961;53.574;55.878;2023-06-14T02:37:44;100408.88;;;22.14;34.40
60089;BME280;45961;53.574;55.878;2023-06-14T02:38:45;100414.53;;;22.03;35.45
60089;BME280;45961;53.574;55.878;2023-06-14T02:39:46;100408.41;;;21.76;35.17
60089;BME280;45961;53.574;55.878;2023-06-14T02:40:47;100403.50;;;22.17;34.60
60089;BME280;45961;53.574;55.878;2023-06-14T02:41:49;100409.88;;;22.35;34.77
60089;BME280;45961;53.574;55.878;2023-06-14T02:42:50;100410.84;;;21.82;35.77
60089;BME280;45961;53.574;55.878;2023-06-14T02:43:55;100403.56;;;22.15;35.47
60089;BME280;45961;53.574;55.878;2023-06-14T02:44:56;100412.66;;;22.32;35.24
60089;BME280;45961;53.574;55.878;2023-06-14T02:45:57;100404.50;;;22.38;34.26
60089;BME280;45961;53.574;55.878;2023-06-14T02:46:59;100414.69;;;22.24;34.04
60089;BME280;45961;53.574;55.878;2023-06-14T02:48:01;100418.28;;;21.69;34.80
60089;BME280;45961;53.574;55.878;2023-06-14T02:49:02;100407.19;;;22.11;34.47
60089;BME280;45961;53.574;55.878;2023-06-14T02:50:03;100412.88;;;22.49;34.38
60089;BME280;45961;53.574;55.878;2023-06-14T02:51:05;100407.50;;;22.02;34.88
60089;BME280;45961;53.574;55.878;2023-06-14T02:52:07;100406.56;;;22.53;34.36
60089;BME280;45961;53.574;55.878;2023-06-14T02:53:09;100406.19;;;22.64;33.80
60089;BME280;45961;53.574;55.878;2023-06-14T02:54:11;100399.72;;;22.95;33.85
60089;BME280;45961;53.574;55.878;2023-06-14T02:55:13;100400.84;;;22.65;34.22
60089;BME280;45961;53.574;55.878;2023-06-14T02:56:14;100404.59;;;22.82;33.49
60089;BME280;45961;53.574;55.878;2023-06-14T02:57:18;100406.66;;;22.52;34.55
60089;BME280;45961;53.574;55.878;2023-06-14T02:58:19;100402.31;;;22.73;34.40
60089;BME280;45961;53.574;55.878;2023-06-14T02:59:20;100409.78;;;22.61;34.73
60089;BME280;45961;53.574;55.878;2023-06-14T03:00:22;100397.91;;;22.73;34.27
60089;BME280;45961;53.574;55.878;2023-06-14T03:01:25;100410.16;;;22.51;34.36
60089;BME280;45961;53.574;55.878;2023-06-14T03:02:34;100406.09;;;22.89;34.12
60089;BME280;45961;53.574;55.878;2023-06-14T03:03:36;100405.94;;;23.15;33.31
60089;BME280;45961;53.574;55.878;2023-06-14T03:04:38;100405.53;;;22.57;33.76
60089;BME280;45961;53.574;55.878;2023-06-14T03:05:44;100406.47;;;22.56;34.21
60089;BME280;45961;53.574;55.878;2023-06-14T03:06:53;100407.81;;;23.13;33.91
60089;BME280;45961;53.574;55.878;2023-06-14T03:07:57;100404.06;;;23.41;34.00
60089;BME280;45961;53.574;55.878;2023-06-14T03:09:02;100395.69;;;23.52;33.34
60089;BME280;45961;53.574;55.878;2023-06-14T03:10:08;100409.13;;;23.46;33.42
60089;BME280;45961;53.574;55.878;2023-06-14T03:11:10;100402.50;;;23.57;33.34
60089;BME280;45961;53.574;55.878;2023-06-14T03:12:11;100395.53;;;23.77;33.35
60089;BME280;45961;53.574;55.878;2023-06-14T03:13:13;100401.13;;;23.47;33.48
60089;BME280;45961;53.574;55.878;2023-06-14T03:14:14;100402.00;;;23.48;33.70
60089;BME280;45961;53.574;55.878;2023-06-14T03:15:18;100403.19;;;23.19;34.05
60089;BME280;45961;53.574;55.878;2023-06-14T03:16:22;100412.91;;;22.96;34.42
60089;BME280;45961;53.574;55.878;2023-06-14T03:17:25;100415.13;;;22.11;35.76
60089;BME280;45961;53.574;55.878;2023-06-14T03:18:31;100410.47;;;22.66;34.64
60089;BME280;45961;53.574;55.878;2023-06-14T03:19:36;100411.75;;;22.80;34.59
60089;BME280;45961;53.574;55.878;2023-06-14T03:20:38;100415.84;;;22.87;34.66
60089;BME280;45961;53.574;55.878;2023-06-14T03:21:41;100409.56;;;22.91;34.70
60089;BME280;45961;53.574;55.878;2023-06-14T03:22:46;100409.78;;;22.85;34.96
60089;BME280;45961;53.574;55.878;2023-06-14T03:23:49;100403.78;;;23.03;35.16
60089;BME280;45961;53.574;55.878;2023-06-14T03:24:50;100412.22;;;23.35;34.24
60089;BME280;45961;53.574;55.878;2023-06-14T03:25:53;100403.88;;;23.24;34.74
60089;BME280;45961;53.574;55.878;2023-06-14T03:26:54;100406.63;;;23.43;35.27
60089;BME280;45961;53.574;55.878;2023-06-14T03:27:56;100408.44;;;23.62;35.39
60089;BME280;45961;53.574;55.878;2023-06-14T03:28:57;100403.81;;;23.25;35.64
60089;BME280;45961;53.574;55.878;2023-06-14T03:29:59;100401.72;;;23.33;35.34
60089;BME280;45961;53.574;55.878;2023-06-14T03:31:00;100400.09;;;23.51;35.63
60089;BME280;45961;53.574;55.878;2023-06-14T03:32:06;100406.31;;;23.93;35.31
60089;BME280;45961;53.574;55.878;2023-06-14T03:33:26;100400.97;;;24.33;34.62
60089;BME280;45961;53.574;55.878;2023-06-14T03:34:27;100396.81;;;24.28;34.93
60089;BME280;45961;53.574;55.878;2023-06-14T03:35:28;100394.25;;;24.26;35.64
60089;BME280;45961;53.574;55.878;2023-06-14T03:36:29;100394.00;;;24.51;35.25
60089;BME280;45961;53.574;55.878;2023-06-14T03:37:31;100400.50;;;24.24;35.13
60089;BME280;45961;53.574;55.878;2023-06-14T03:38:32;100394.13;;;24.29;34.73
60089;BME280;45961;53.574;55.878;2023-06-14T03:39:34;100393.50;;;24.43;34.82
60089;BME280;45961;53.574;55.878;2023-06-14T03:40:35;100401.25;;;24.67;35.11
60089;BME280;45961;53.574;55.878;2023-06-14T03:41:38;100395.59;;;25.12;34.67
60089;BME280;45961;53.574;55.878;2023-06-14T03:42:39;100397.72;;;25.23;34.34
60089;BME280;45961;53.574;55.878;2023-06-14T03:43:40;100402.88;;;25.26;33.68
60089;BME280;45961;53.574;55.878;2023-06-14T03:44:41;100398.53;;;25.25;33.81
60089;BME280;45961;53.574;55.878;2023-06-14T03:45:42;100392.28;;;25.07;33.95
60089;BME280;45961;53.574;55.878;2023-06-14T03:46:44;100395.22;;;25.20;33.13
60089;BME280;45961;53.574;55.878;2023-06-14T03:47:45;100397.59;;;25.26;32.42
60089;BME280;45961;53.574;55.878;2023-06-14T03:48:47;100398.56;;;25.04;31.48
60089;BME280;45961;53.574;55.878;2023-06-14T03:49:48;100393.13;;;25.07;31.59
60089;BME280;45961;53.574;55.878;2023-06-14T03:50:49;100392.19;;;25.08;31.23
60089;BME280;45961;53.574;55.878;2023-06-14T03:51:51;100397.59;;;24.88;30.65
60089;BME280;45961;53.574;55.878;2023-06-14T03:52:55;100389.16;;;24.99;31.46
60089;BME280;45961;53.574;55.878;2023-06-14T03:53:57;100394.84;;;25.08;31.39
60089;BME280;45961;53.574;55.878;2023-06-14T03:54:58;100400.69;;;25.17;31.60
60089;BME280;45961;53.574;55.878;2023-06-14T03:56:02;100395.41;;;25.34;30.92
60089;BME280;45961;53.574;55.878;2023-06-14T03:57:12;100394.66;;;25.49;30.99
60089;BME280;45961;53.574;55.878;2023-06-14T03:58:12;100391.56;;;25.22;30.69
60089;BME280;45961;53.574;55.878;2023-06-14T03:59:14;100385.19;;;25.07;31.03
60089;BME280;45961;53.574;55.878;2023-06-14T04:00:15;100388.69;;;25.08;31.19
60089;BME280;45961;53.574;55.878;2023-06-14T04:01:17;100388.59;;;25.11;31.28
60089;BME280;45961;53.574;55.878;2023-06-14T04:02:18;100387.06;;;25.05;31.44
60089;BME280;45961;53.574;55.878;2023-06-14T04:03:20;100386.63;;;24.96;31.17
60089;BME280;45961;53.574;55.878;2023-06-14T04:04:26;100392.38;;;25.05;31.25
60089;BME280;45961;53.574;55.878;2023-06-14T04:05:30;100395.75;;;25.09;31.15
60089;BME280;45961;53.574;55.878;2023-06-14T04:06:32;100391.03;;;24.59;31.80
60089;BME280;45961;53.574;55.878;2023-06-14T04:07:35;100391.16;;;24.56;32.13
60089;BME280;45961;53.574;55.878;2023-06-14T04:08:45;100391.03;;;24.78;31.79
60089;BME280;45961;53.574;55.878;2023-06-14T04:09:46;100385.09;;;24.73;31.85
60089;BME280;45961;53.574;55.878;2023-06-14T04:10:47;100391.63;;;24.84;31.94
60089;BME280;45961;53.574;55.878;2023-06-14T04:11:49;100383.19;;;25.13;31.45
60089;BME280;45961;53.574;55.878;2023-06-14T04:12:50;100388.91;;;25.03;30.96
60089;BME280;45961;53.574;55.878;2023-06-14T04:13:52;100395.22;;;25.20;31.45
60089;BME280;45961;53.574;55.878;2023-06-14T04:14:55;100394.31;;;25.21;30.86
60089;BME280;45961;53.574;55.878;2023-06-14T04:15:56;100399.63;;;25.21;30.62
60089;BME280;45961;53.574;55.878;2023-06-14T04:17:02;100393.69;;;24.78;31.10
60089;BME280;45961;53.574;55.878;2023-06-14T04:18:03;100397.59;;;24.88;31.34
60089;BME280;45961;53.574;55.878;2023-06-14T04:19:04;100395.59;;;25.12;30.97
60089;BME280;45961;53.574;55.878;2023-06-14T04:20:05;100399.91;;;25.15;31.09
60089;BME280;45961;53.574;55.878;2023-06-14T04:21:08;100388.44;;;24.95;30.67
60089;BME280;45961;53.574;55.878;2023-06-14T04:22:09;100385.34;;;25.04;31.08
60089;BME280;45961;53.574;55.878;2023-06-14T04:23:15;100389.38;;;25.13;30.75
60089;BME280;45961;53.574;55.878;2023-06-14T04:24:19;100396.31;;;24.78;31.25
60089;BME280;45961;53.574;55.878;2023-06-14T04:25:22;100396.44;;;24.56;31.47
60089;BME280;45961;53.574;55.878;2023-06-14T04:26:27;100389.53;;;24.33;31.46
60089;BME280;45961;53.574;55.878;2023-06-14T04:27:31;100391.81;;;24.42;31.61
60089;BME280;45961;53.574;55.878;2023-06-14T04:28:36;100391.50;;;24.28;31.46
60089;BME280;45961;53.574;55.878;2023-06-14T04:29:41;100392.91;;;24.16;32.05
60089;BME280;45961;53.574;55.878;2023-06-14T04:30:46;100388.22;;;24.43;31.56
60089;BME280;45961;53.574;55.878;2023-06-14T04:31:49;100392.25;;;24.31;31.90
60089;BME280;45961;53.574;55.878;2023-06-14T04:32:52;100392.31;;;24.30;31.88
60089;BME280;45961;53.574;55.878;2023-06-14T04:33:56;100374.66;;;24.30;32.06
60089;BME280;45961;53.574;55.878;2023-06-14T04:34:57;100391.25;;;24.34;32.11
60089;BME280;45961;53.574;55.878;2023-06-14T04:36:00;100389.31;;;23.98;32.45
60089;BME280;45961;53.574;55.878;2023-06-14T04:37:01;100387.91;;;24.10;32.91
60089;BME280;45961;53.574;55.878;2023-06-14T04:38:06;100389.81;;;24.27;32.77
60089;BME280;45961;53.574;55.878;2023-06-14T04:39:10;100378.13;;;24.12;32.34
60089;BME280;45961;53.574;55.878;2023-06-14T04:40:11;100379.34;;;24.05;32.50
60089;BME280;45961;53.574;55.878;2023-06-14T04:41:13;100386.41;;;24.04;32.95
60089;BME280;45961;53.574;55.878;2023-06-14T04:42:17;100383.09;;;23.79;32.12
60089;BME280;45961;53.574;55.878;2023-06-14T04:43:22;100390.38;;;23.74;32.62
60089;BME280;45961;53.574;55.878;2023-06-14T04:44:27;100388.25;;;23.82;32.13
60089;BME280;45961;53.574;55.878;2023-06-14T04:45:33;100380.50;;;23.57;32.66
60089;BME280;45961;53.574;55.878;2023-06-14T04:46:34;100384.03;;;23.78;32.55
60089;BME280;45961;53.574;55.878;2023-06-14T04:47:50;100371.47;;;23.83;33.01
60089;BME280;45961;53.574;55.878;2023-06-14T04:48:52;100385.41;;;24.07;33.12
60089;BME280;45961;53.574;55.878;2023-06-14T04:49:52;100383.06;;;24.20;32.95
60089;BME280;45961;53.574;55.878;2023-06-14T04:50:55;100375.97;;;24.01;32.86
60089;BME280;45961;53.574;55.878;2023-06-14T04:51:57;100391.03;;;23.99;33.21
60089;BME280;45961;53.574;55.878;2023-06-14T04:53:02;100392.16;;;23.94;33.90
60089;BME280;45961;53.574;55.878;2023-06-14T04:54:04;100371.47;;;23.83;33.41
60089;BME280;45961;53.574;55.878;2023-06-14T04:55:06;100376.75;;;24.03;33.43
60089;BME280;45961;53.574;55.878;2023-06-14T04:56:07;100385.78;;;24.18;33.93
60089;BME280;45961;53.574;55.878;2023-06-14T04:57:09;100372.09;;;24.29;34.16
60089;BME280;45961;53.574;55.878;2023-06-14T04:58:16;100382.34;;;24.16;33.42
60089;BME280;45961;53.574;55.878;2023-06-14T04:59:17;100376.06;;;24.19;33.16
60089;BME280;45961;53.574;55.878;2023-06-14T05:00:18;100372.06;;;24.10;33.41
60089;BME280;45961;53.574;55.878;2023-06-14T05:01:20;100377.06;;;24.16;33.08
60089;BME280;45961;53.574;55.878;2023-06-14T05:02:22;100362.03;;;24.37;33.44
60089;BME280;45961;53.574;55.878;2023-06-14T05:03:24;100356.81;;;24.15;32.65
60089;BME280;45961;53.574;55.878;2023-06-14T05:04:26;100376.53;;;24.28;32.34
60089;BME280;45961;53.574;55.878;2023-06-14T05:05:28;100372.84;;;24.51;32.83
60089;BME280;45961;53.574;55.878;2023-06-14T05:06:30;100375.34;;;24.54;31.98
60089;BME280;45961;53.574;55.878;2023-06-14T05:07:32;100369.78;;;24.42;32.42
60089;BME280;45961;53.574;55.878;2023-06-14T05:08:34;100367.41;;;24.54;33.37
60089;BME280;45961;53.574;55.878;2023-06-14T05:09:35;100376.28;;;24.53;32.26
60089;BME280;45961;53.574;55.878;2023-06-14T05:10:38;100369.34;;;24.51;33.17
60089;BME280;45961;53.574;55.878;2023-06-14T05:11:39;100367.78;;;24.47;32.27
60089;BME280;45961;53.574;55.878;2023-06-14T05:12:41;100371.28;;;24.47;32.05
60089;BME280;45961;53.574;55.878;2023-06-14T05:13:44;100374.34;;;24.38;31.66
60089;BME280;45961;53.574;55.878;2023-06-14T05:14:47;100375.25;;;24.37;32.05
60089;BME280;45961;53.574;55.878;2023-06-14T05:15:50;100369.78;;;24.60;32.96
60089;BME280;45961;53.574;55.878;2023-06-14T05:16:51;100374.91;;;24.63;33.74
60089;BME280;45961;53.574;55.878;2023-06-14T05:17:52;100372.72;;;24.54;32.74
60089;BME280;45961;53.574;55.878;2023-06-14T05:18:55;100364.91;;;24.51;32.13
60089;BME280;45961;53.574;55.878;2023-06-14T05:19:57;100369.97;;;24.37;32.45
60089;BME280;45961;53.574;55.878;2023-06-14T05:20:58;100365.94;;;24.28;32.54
60089;BME280;45961;53.574;55.878;2023-06-14T05:21:59;100367.03;;;24.04;32.36
60089;BME280;45961;53.574;55.878;2023-06-14T05:23:00;100366.81;;;24.29;33.15
60089;BME280;45961;53.574;55.878;2023-06-14T05:24:01;100361.88;;;24.40;32.86
60089;BME280;45961;53.574;55.878;2023-06-14T05:25:02;100371.06;;;24.31;33.29